PWSweather.com
Personal Weather Stations
Station Observations
KJ4AJP
Beautiful Downtown Gardner, Martin, TN 38237

Beautiful Downtown GardnerMartin, TN 38237

Lat: 36.358, Lon: -88.8994

Elevation: 384.3

Station Type: TP1080WC

http://weather.mambm.com/

High Low Average
Temperature 44.6°F7.0°C 21.0°F-6.1°C 34.5°F1.4°C
Dew Point 38.0°F3.3°C 9.4°F-12.6°C 24.1°F-4.4°C
Winds 9.2 mph 14.8 kmh Calm Calm 5.0 mph SE8.0 kmh SE
Wind Gusts 16.8 mph27.0 kmh 3.1 mph5.0 kmh 11.0 mph17.7 kmh
Humidity 96% 53% 67%
Pressure 30.40 in1029.5 mb 30.04 in1017.3 mb -
Precipitation 0.45 in11.4 mm - -
Hour Temp Dew Point Humidity Winds Wind Gusts Pressure Precip Precip Rate Daily Precip Total
12:00 AM 20.7°F-6.3°C 9.0°F-12.8°C 60% 1.6 mph E2.6 kmh E 4.5 mph7.2 kmh 30.43 in1030.5 mb 0.00 in0.0 mm 0.00 in0.0 mm 0.00 in0.0 mm
12:15 AM 20.5°F-6.4°C 8.9°F-12.8°C 60% 2.2 mph ESE3.5 kmh ESE 4.5 mph7.2 kmh 30.43 in1030.5 mb 0.00 in0.0 mm 0.00 in0.0 mm 0.00 in0.0 mm
12:30 AM 20.5°F-6.4°C 8.9°F-12.8°C 60% 2.2 mph E3.5 kmh E 6.0 mph9.7 kmh 30.41 in1029.8 mb 0.00 in0.0 mm 0.00 in0.0 mm 0.00 in0.0 mm
12:45 AM 20.8°F-6.2°C 9.6°F-12.4°C 61% 3.1 mph ESE5.0 kmh ESE 7.6 mph12.2 kmh 30.41 in1029.8 mb 0.00 in0.0 mm 0.00 in0.0 mm 0.00 in0.0 mm
01:00 AM 21.0°F-6.1°C 9.4°F-12.6°C 60% 3.8 mph E6.1 kmh E 8.3 mph13.4 kmh 30.40 in1029.5 mb 0.00 in0.0 mm 0.00 in0.0 mm 0.00 in0.0 mm
01:15 AM 21.4°F-5.9°C 9.7°F-12.4°C 60% 3.1 mph ESE5.0 kmh ESE 6.9 mph11.1 kmh 30.40 in1029.5 mb 0.00 in0.0 mm 0.00 in0.0 mm 0.00 in0.0 mm
01:30 AM 21.7°F-5.7°C 9.7°F-12.4°C 59% 3.1 mph ESE5.0 kmh ESE 6.9 mph11.1 kmh 30.40 in1029.5 mb 0.00 in0.0 mm 0.00 in0.0 mm 0.00 in0.0 mm
01:45 AM 22.3°F-5.4°C 9.8°F-12.3°C 58% 3.8 mph SE6.1 kmh SE 10.7 mph17.2 kmh 30.40 in1029.5 mb 0.00 in0.0 mm 0.00 in0.0 mm 0.00 in0.0 mm
02:00 AM 22.5°F-5.3°C 10.0°F-12.2°C 58% 3.1 mph SE5.0 kmh SE 9.8 mph15.8 kmh 30.40 in1029.5 mb 0.00 in0.0 mm 0.00 in0.0 mm 0.00 in0.0 mm
02:15 AM 22.5°F-5.3°C 10.0°F-12.2°C 58% 5.4 mph ESE8.7 kmh ESE 9.8 mph15.8 kmh 30.39 in1029.1 mb 0.00 in0.0 mm 0.00 in0.0 mm 0.00 in0.0 mm
02:30 AM 22.5°F-5.3°C 10.0°F-12.2°C 58% 6.0 mph ESE9.7 kmh ESE 10.7 mph17.2 kmh 30.40 in1029.5 mb 0.00 in0.0 mm 0.00 in0.0 mm 0.00 in0.0 mm
02:45 AM 22.8°F-5.1°C 10.3°F-12.1°C 58% 4.5 mph SE7.2 kmh SE 10.7 mph17.2 kmh 30.40 in1029.5 mb 0.00 in0.0 mm 0.00 in0.0 mm 0.00 in0.0 mm
03:00 AM 23.2°F-4.9°C 10.6°F-11.9°C 58% 3.8 mph ESE6.1 kmh ESE 12.1 mph19.5 kmh 30.38 in1028.8 mb 0.00 in0.0 mm 0.00 in0.0 mm 0.00 in0.0 mm
03:15 AM 23.5°F-4.7°C 10.6°F-11.9°C 57% 8.3 mph SE13.4 kmh SE 12.1 mph19.5 kmh 30.38 in1028.8 mb 0.00 in0.0 mm 0.00 in0.0 mm 0.00 in0.0 mm
03:30 AM 23.9°F-4.5°C 10.5°F-11.9°C 56% 7.6 mph SE12.2 kmh SE 12.1 mph19.5 kmh 30.39 in1029.1 mb 0.00 in0.0 mm 0.00 in0.0 mm 0.00 in0.0 mm
03:45 AM 24.3°F-4.3°C 10.9°F-11.7°C 56% 5.4 mph SE8.7 kmh SE 11.4 mph18.3 kmh 30.39 in1029.1 mb 0.00 in0.0 mm 0.00 in0.0 mm 0.00 in0.0 mm
04:00 AM 24.3°F-4.3°C 10.9°F-11.7°C 56% 6.0 mph SE9.7 kmh SE 10.7 mph17.2 kmh 30.37 in1028.4 mb 0.00 in0.0 mm 0.00 in0.0 mm 0.00 in0.0 mm
04:15 AM 24.4°F-4.2°C 11.0°F-11.7°C 56% 4.5 mph ESE7.2 kmh ESE 11.4 mph18.3 kmh 30.37 in1028.4 mb 0.00 in0.0 mm 0.00 in0.0 mm 0.00 in0.0 mm
04:30 AM 24.6°F-4.1°C 10.8°F-11.8°C 55% 5.4 mph SE8.7 kmh SE 9.2 mph14.8 kmh 30.36 in1028.1 mb 0.00 in0.0 mm 0.00 in0.0 mm 0.00 in0.0 mm
04:45 AM 24.8°F-4.0°C 11.4°F-11.4°C 56% 5.4 mph ESE8.7 kmh ESE 9.8 mph15.8 kmh 30.35 in1027.8 mb 0.00 in0.0 mm 0.00 in0.0 mm 0.00 in0.0 mm
05:00 AM 25.0°F-3.9°C 11.5°F-11.4°C 56% 2.2 mph SE3.5 kmh SE 9.8 mph15.8 kmh 30.35 in1027.8 mb 0.00 in0.0 mm 0.00 in0.0 mm 0.00 in0.0 mm
05:15 AM 25.2°F-3.8°C 11.7°F-11.3°C 56% 2.2 mph ESE3.5 kmh ESE 8.3 mph13.4 kmh 30.35 in1027.8 mb 0.00 in0.0 mm 0.00 in0.0 mm 0.00 in0.0 mm
05:30 AM 25.3°F-3.7°C 12.3°F-10.9°C 57% 3.8 mph ESE6.1 kmh ESE 8.3 mph13.4 kmh 30.35 in1027.8 mb 0.00 in0.0 mm 0.00 in0.0 mm 0.00 in0.0 mm
05:45 AM 25.7°F-3.5°C 12.6°F-10.8°C 57% 4.5 mph ESE7.2 kmh ESE 9.2 mph14.8 kmh 30.34 in1027.4 mb 0.00 in0.0 mm 0.00 in0.0 mm 0.00 in0.0 mm
06:00 AM 25.9°F-3.4°C 12.8°F-10.7°C 57% 4.5 mph SE7.2 kmh SE 7.6 mph12.2 kmh 30.34 in1027.4 mb 0.00 in0.0 mm 0.00 in0.0 mm 0.00 in0.0 mm
06:15 AM 26.1°F-3.3°C 13.3°F-10.4°C 58% 1.6 mph SE2.6 kmh SE 7.6 mph12.2 kmh 30.34 in1027.4 mb 0.00 in0.0 mm 0.00 in0.0 mm 0.00 in0.0 mm
06:30 AM 26.4°F-3.1°C 13.3°F-10.4°C 57% 4.5 mph SE7.2 kmh SE 9.8 mph15.8 kmh 30.34 in1027.4 mb 0.00 in0.0 mm 0.00 in0.0 mm 0.00 in0.0 mm
06:45 AM 26.4°F-3.1°C 13.7°F-10.2°C 58% 3.1 mph SE5.0 kmh SE 7.6 mph12.2 kmh 30.34 in1027.4 mb 0.00 in0.0 mm 0.00 in0.0 mm 0.00 in0.0 mm
07:00 AM 26.4°F-3.1°C 13.7°F-10.2°C 58% 2.2 mph SE3.5 kmh SE 6.9 mph11.1 kmh 30.34 in1027.4 mb 0.00 in0.0 mm 0.00 in0.0 mm 0.00 in0.0 mm
07:15 AM 26.2°F-3.2°C 13.9°F-10.1°C 59% 1.6 mph SSE2.6 kmh SSE 3.8 mph6.1 kmh 30.34 in1027.4 mb 0.00 in0.0 mm 0.00 in0.0 mm 0.00 in0.0 mm
07:30 AM 25.9°F-3.4°C 13.6°F-10.2°C 59% 2.2 mph SE3.5 kmh SE 6.0 mph9.7 kmh 30.34 in1027.4 mb 0.00 in0.0 mm 0.00 in0.0 mm 0.00 in0.0 mm
07:45 AM 25.7°F-3.5°C 13.4°F-10.3°C 59% 0.7 mph ESE1.1 kmh ESE 5.4 mph8.7 kmh 30.34 in1027.4 mb 0.00 in0.0 mm 0.00 in0.0 mm 0.00 in0.0 mm
08:00 AM 25.5°F-3.6°C 13.6°F-10.2°C 60% 0.7 mph NE1.1 kmh NE 3.1 mph5.0 kmh 30.35 in1027.8 mb 0.00 in0.0 mm 0.00 in0.0 mm 0.00 in0.0 mm
08:15 AM 25.5°F-3.6°C 14.0°F-10.0°C 61% 3.1 mph SE5.0 kmh SE 6.0 mph9.7 kmh 30.35 in1027.8 mb 0.00 in0.0 mm 0.00 in0.0 mm 0.00 in0.0 mm
08:30 AM 25.7°F-3.5°C 14.2°F-9.9°C 61% 2.2 mph SE3.5 kmh SE 6.9 mph11.1 kmh 30.35 in1027.8 mb 0.00 in0.0 mm 0.00 in0.0 mm 0.00 in0.0 mm
08:45 AM 26.1°F-3.3°C 14.5°F-9.7°C 61% 4.5 mph SE7.2 kmh SE 8.3 mph13.4 kmh 30.34 in1027.4 mb 0.00 in0.0 mm 0.00 in0.0 mm 0.00 in0.0 mm
09:00 AM 26.8°F-2.9°C 15.2°F-9.3°C 61% 5.4 mph SE8.7 kmh SE 9.2 mph14.8 kmh 30.34 in1027.4 mb 0.00 in0.0 mm 0.00 in0.0 mm 0.00 in0.0 mm
09:15 AM 27.7°F-2.4°C 16.0°F-8.9°C 61% 3.8 mph SE6.1 kmh SE 9.8 mph15.8 kmh 30.33 in1027.1 mb 0.00 in0.0 mm 0.00 in0.0 mm 0.00 in0.0 mm
09:30 AM 28.8°F-1.8°C 17.0°F-8.3°C 61% 3.1 mph SE5.0 kmh SE 8.3 mph13.4 kmh 30.33 in1027.1 mb 0.00 in0.0 mm 0.00 in0.0 mm 0.00 in0.0 mm
09:45 AM 30.0°F-1.1°C 18.2°F-7.7°C 61% 6.0 mph SE9.7 kmh SE 11.4 mph18.3 kmh 30.33 in1027.1 mb 0.00 in0.0 mm 0.00 in0.0 mm 0.00 in0.0 mm
10:00 AM 31.6°F-0.2°C 19.4°F-7.0°C 60% 6.9 mph SSE11.1 kmh SSE 12.1 mph19.5 kmh 30.32 in1026.8 mb 0.00 in0.0 mm 0.00 in0.0 mm 0.00 in0.0 mm
10:15 AM 32.5°F0.3°C 20.2°F-6.6°C 60% 3.8 mph SSE6.1 kmh SSE 12.1 mph19.5 kmh 30.32 in1026.8 mb 0.00 in0.0 mm 0.00 in0.0 mm 0.00 in0.0 mm
10:30 AM 33.6°F0.9°C 21.2°F-6.0°C 60% 5.4 mph S8.7 kmh S 11.4 mph18.3 kmh 30.30 in1026.1 mb 0.00 in0.0 mm 0.00 in0.0 mm 0.00 in0.0 mm
10:45 AM 35.1°F1.7°C 22.2°F-5.4°C 59% 4.5 mph SSE7.2 kmh SSE 12.1 mph19.5 kmh 30.31 in1026.4 mb 0.00 in0.0 mm 0.00 in0.0 mm 0.00 in0.0 mm
11:00 AM 36.1°F2.3°C 22.8°F-5.1°C 58% 3.8 mph SSE6.1 kmh SSE 15.9 mph25.6 kmh 30.31 in1026.4 mb 0.00 in0.0 mm 0.00 in0.0 mm 0.00 in0.0 mm
11:15 AM 36.9°F2.7°C 23.5°F-4.7°C 58% 4.5 mph SSE7.2 kmh SSE 13.0 mph20.9 kmh 30.30 in1026.1 mb 0.00 in0.0 mm 0.00 in0.0 mm 0.00 in0.0 mm
11:30 AM 37.9°F3.3°C 24.1°F-4.4°C 57% 9.2 mph SSE14.8 kmh SSE 15.9 mph25.6 kmh 30.30 in1026.1 mb 0.00 in0.0 mm 0.00 in0.0 mm 0.00 in0.0 mm
11:45 AM 39.0°F3.9°C 25.1°F-3.8°C 57% 6.0 mph S9.7 kmh S 13.0 mph20.9 kmh 30.29 in1025.7 mb 0.00 in0.0 mm 0.00 in0.0 mm 0.00 in0.0 mm
12:00 PM 40.1°F4.5°C 25.2°F-3.8°C 55% 3.8 mph S6.1 kmh S 14.5 mph23.3 kmh 30.29 in1025.7 mb 0.00 in0.0 mm 0.00 in0.0 mm 0.00 in0.0 mm
12:15 PM 40.6°F4.8°C 25.8°F-3.4°C 55% 7.6 mph SE12.2 kmh SE 13.0 mph20.9 kmh 30.27 in1025.1 mb 0.00 in0.0 mm 0.00 in0.0 mm 0.00 in0.0 mm
12:30 PM 41.0°F5.0°C 26.1°F-3.3°C 55% 4.5 mph SSE7.2 kmh SSE 9.2 mph14.8 kmh 30.26 in1024.7 mb 0.00 in0.0 mm 0.00 in0.0 mm 0.00 in0.0 mm
12:45 PM 41.5°F5.3°C 26.6°F-3.0°C 55% 2.2 mph SE3.5 kmh SE 9.8 mph15.8 kmh 30.25 in1024.4 mb 0.00 in0.0 mm 0.00 in0.0 mm 0.00 in0.0 mm
01:00 PM 42.3°F5.7°C 26.8°F-2.9°C 54% 3.1 mph SSE5.0 kmh SSE 9.8 mph15.8 kmh 30.24 in1024.0 mb 0.00 in0.0 mm 0.00 in0.0 mm 0.00 in0.0 mm
01:15 PM 42.8°F6.0°C 27.3°F-2.6°C 54% 5.4 mph SE8.7 kmh SE 10.7 mph17.2 kmh 30.22 in1023.4 mb 0.00 in0.0 mm 0.00 in0.0 mm 0.00 in0.0 mm
01:30 PM 43.3°F6.3°C 27.4°F-2.6°C 53% 5.4 mph SSE8.7 kmh SSE 14.5 mph23.3 kmh 30.21 in1023.0 mb 0.00 in0.0 mm 0.00 in0.0 mm 0.00 in0.0 mm
01:45 PM 43.9°F6.6°C 27.9°F-2.3°C 53% 4.5 mph SE7.2 kmh SE 13.6 mph21.9 kmh 30.20 in1022.7 mb 0.00 in0.0 mm 0.00 in0.0 mm 0.00 in0.0 mm
02:00 PM 44.2°F6.8°C 28.2°F-2.1°C 53% 6.9 mph SSE11.1 kmh SSE 14.5 mph23.3 kmh 30.19 in1022.4 mb 0.00 in0.0 mm 0.00 in0.0 mm 0.00 in0.0 mm
02:15 PM 44.6°F7.0°C 28.5°F-1.9°C 53% 6.9 mph SE11.1 kmh SE 13.6 mph21.9 kmh 30.18 in1022.0 mb 0.00 in0.0 mm 0.00 in0.0 mm 0.00 in0.0 mm
02:30 PM 44.6°F7.0°C 28.5°F-1.9°C 53% 6.0 mph SSE9.7 kmh SSE 13.6 mph21.9 kmh 30.17 in1021.7 mb 0.00 in0.0 mm 0.00 in0.0 mm 0.00 in0.0 mm
02:45 PM 44.4°F6.9°C 28.4°F-2.0°C 53% 2.2 mph SE3.5 kmh SE 12.1 mph19.5 kmh 30.18 in1022.0 mb 0.00 in0.0 mm 0.00 in0.0 mm 0.00 in0.0 mm
03:00 PM 44.4°F6.9°C 28.8°F-1.8°C 54% 1.6 mph SSE2.6 kmh SSE 10.7 mph17.2 kmh 30.17 in1021.7 mb 0.00 in0.0 mm 0.00 in0.0 mm 0.00 in0.0 mm
03:15 PM 44.4°F6.9°C 28.8°F-1.8°C 54% 2.2 mph SE3.5 kmh SE 11.4 mph18.3 kmh 30.17 in1021.7 mb 0.00 in0.0 mm 0.00 in0.0 mm 0.00 in0.0 mm
03:30 PM 44.2°F6.8°C 29.1°F-1.6°C 55% 3.8 mph SE6.1 kmh SE 12.1 mph19.5 kmh 30.15 in1021.0 mb 0.00 in0.0 mm 0.00 in0.0 mm 0.00 in0.0 mm
03:45 PM 44.1°F6.7°C 28.9°F-1.7°C 55% 4.5 mph SE7.2 kmh SE 15.2 mph24.5 kmh 30.14 in1020.7 mb 0.00 in0.0 mm 0.00 in0.0 mm 0.00 in0.0 mm
04:00 PM 44.1°F6.7°C 29.4°F-1.4°C 56% 4.5 mph SE7.2 kmh SE 8.3 mph13.4 kmh 30.14 in1020.7 mb 0.00 in0.0 mm 0.00 in0.0 mm 0.00 in0.0 mm
04:15 PM 43.9°F6.6°C 29.6°F-1.3°C 57% 4.5 mph SE7.2 kmh SE 11.4 mph18.3 kmh 30.14 in1020.7 mb 0.00 in0.0 mm 0.00 in0.0 mm 0.00 in0.0 mm
04:30 PM 43.9°F6.6°C 30.1°F-1.1°C 58% 6.0 mph SE9.7 kmh SE 14.5 mph23.3 kmh 30.14 in1020.7 mb 0.00 in0.0 mm 0.00 in0.0 mm 0.00 in0.0 mm
04:45 PM 43.9°F6.6°C 30.5°F-0.8°C 59% 7.6 mph SE12.2 kmh SE 13.0 mph20.9 kmh 30.12 in1020.0 mb 0.00 in0.0 mm 0.00 in0.0 mm 0.00 in0.0 mm
05:00 PM 43.9°F6.6°C 30.5°F-0.8°C 59% 6.0 mph SE9.7 kmh SE 13.0 mph20.9 kmh 30.11 in1019.6 mb 0.00 in0.0 mm 0.00 in0.0 mm 0.00 in0.0 mm
05:15 PM 43.9°F6.6°C 30.5°F-0.8°C 59% 3.1 mph SE5.0 kmh SE 11.4 mph18.3 kmh 30.11 in1019.6 mb 0.00 in0.0 mm 0.00 in0.0 mm 0.00 in0.0 mm
05:30 PM 44.1°F6.7°C 30.2°F-1.0°C 58% 6.0 mph SE9.7 kmh SE 11.4 mph18.3 kmh 30.11 in1019.6 mb 0.00 in0.0 mm 0.00 in0.0 mm 0.00 in0.0 mm
05:45 PM 44.2°F6.8°C 30.4°F-0.9°C 58% 4.5 mph SE7.2 kmh SE 14.5 mph23.3 kmh 30.11 in1019.6 mb 0.00 in0.0 mm 0.00 in0.0 mm 0.00 in0.0 mm
06:00 PM 44.2°F6.8°C 30.4°F-0.9°C 58% 4.5 mph SSE7.2 kmh SSE 9.8 mph15.8 kmh 30.13 in1020.3 mb 0.00 in0.0 mm 0.00 in0.0 mm 0.00 in0.0 mm
06:15 PM 42.8°F6.0°C 33.3°F0.7°C 69% 3.1 mph SE5.0 kmh SE 13.6 mph21.9 kmh 30.13 in1020.3 mb 0.01 in0.3 mm 0.04 in1.0 mm 0.01 in0.3 mm
06:30 PM 41.0°F5.0°C 34.0°F1.1°C 76% 4.5 mph ESE7.2 kmh ESE 9.8 mph15.8 kmh 30.11 in1019.6 mb 0.05 in1.3 mm 0.16 in4.1 mm 0.05 in1.3 mm
06:45 PM 39.6°F4.2°C 33.9°F1.1°C 80% 0.7 mph SE1.1 kmh SE 6.0 mph9.7 kmh 30.12 in1020.0 mb 0.07 in1.8 mm 0.08 in2.0 mm 0.07 in1.8 mm
07:00 PM 38.8°F3.8°C 34.7°F1.5°C 85% 5.4 mph SE8.7 kmh SE 8.3 mph13.4 kmh 30.12 in1020.0 mb 0.13 in3.3 mm 0.08 in2.0 mm 0.13 in3.3 mm
07:15 PM 37.8°F3.2°C 35.1°F1.7°C 90% 6.0 mph SE9.7 kmh SE 13.0 mph20.9 kmh 30.10 in1019.3 mb 0.13 in3.3 mm 0.00 in0.0 mm 0.15 in3.8 mm
07:30 PM 37.6°F3.1°C 35.7°F2.1°C 93% 6.0 mph ESE9.7 kmh ESE 15.2 mph24.5 kmh 30.10 in1019.3 mb 0.13 in3.3 mm 0.00 in0.0 mm 0.18 in4.6 mm
07:45 PM 37.6°F3.1°C 35.7°F2.1°C 93% 8.3 mph E13.4 kmh E 15.2 mph24.5 kmh 30.09 in1019.0 mb 0.11 in2.8 mm 0.00 in0.0 mm 0.18 in4.6 mm
08:00 PM 37.6°F3.1°C 36.0°F2.2°C 94% 6.9 mph SE11.1 kmh SE 15.2 mph24.5 kmh 30.09 in1019.0 mb 0.05 in1.3 mm 0.00 in0.0 mm 0.18 in4.6 mm
08:15 PM 37.8°F3.2°C 35.9°F2.2°C 93% 4.5 mph SE7.2 kmh SE 13.0 mph20.9 kmh 30.08 in1018.6 mb 0.04 in1.0 mm 0.00 in0.0 mm 0.19 in4.8 mm
08:30 PM 37.8°F3.2°C 35.7°F2.1°C 92% Calm Calm 5.4 mph8.7 kmh 30.09 in1019.0 mb 0.01 in0.3 mm 0.00 in0.0 mm 0.19 in4.8 mm
08:45 PM 37.8°F3.2°C 35.9°F2.2°C 93% 6.0 mph SE9.7 kmh SE 10.7 mph17.2 kmh 30.08 in1018.6 mb 0.02 in0.5 mm 0.04 in1.0 mm 0.20 in5.1 mm
09:00 PM 37.8°F3.2°C 35.7°F2.1°C 92% 2.2 mph SE3.5 kmh SE 6.9 mph11.1 kmh 30.08 in1018.6 mb 0.04 in1.0 mm 0.03 in0.8 mm 0.21 in5.3 mm
09:15 PM 37.6°F3.1°C 35.7°F2.1°C 93% 3.1 mph SE5.0 kmh SE 10.7 mph17.2 kmh 30.06 in1017.9 mb 0.02 in0.5 mm 0.00 in0.0 mm 0.21 in5.3 mm
09:30 PM 37.9°F3.3°C 36.1°F2.3°C 93% 3.1 mph SSE5.0 kmh SSE 13.6 mph21.9 kmh 30.07 in1018.3 mb 0.04 in1.0 mm 0.08 in2.0 mm 0.22 in5.6 mm
09:45 PM 38.8°F3.8°C 37.3°F2.9°C 94% 9.2 mph SSE14.8 kmh SSE 15.9 mph25.6 kmh 30.07 in1018.3 mb 0.05 in1.3 mm 0.04 in1.0 mm 0.25 in6.4 mm
10:00 PM 38.8°F3.8°C 37.3°F2.9°C 94% 3.8 mph SE6.1 kmh SE 16.8 mph27.0 kmh 30.06 in1017.9 mb 0.06 in1.5 mm 0.01 in0.3 mm 0.27 in6.9 mm
10:15 PM 38.7°F3.7°C 37.4°F3.0°C 95% 3.1 mph SE5.0 kmh SE 13.6 mph21.9 kmh 30.05 in1017.6 mb 0.07 in1.8 mm 0.04 in1.0 mm 0.28 in7.1 mm
10:30 PM 38.8°F3.8°C 37.5°F3.1°C 95% 7.6 mph SE12.2 kmh SE 12.1 mph19.5 kmh 30.04 in1017.3 mb 0.06 in1.5 mm 0.00 in0.0 mm 0.28 in7.1 mm
10:45 PM 38.8°F3.8°C 37.5°F3.1°C 95% 5.4 mph SSE8.7 kmh SSE 14.5 mph23.3 kmh 30.06 in1017.9 mb 0.06 in1.5 mm 0.00 in0.0 mm 0.31 in7.9 mm
11:00 PM 39.0°F3.9°C 38.0°F3.3°C 96% 6.0 mph S9.7 kmh S 15.2 mph24.5 kmh 30.06 in1017.9 mb 0.06 in1.5 mm 0.00 in0.0 mm 0.33 in8.4 mm
11:15 PM 38.8°F3.8°C 37.8°F3.2°C 96% 5.4 mph SSE8.7 kmh SSE 15.2 mph24.5 kmh 30.05 in1017.6 mb 0.07 in1.8 mm 0.04 in1.0 mm 0.35 in8.9 mm
11:30 PM 38.8°F3.8°C 37.8°F3.2°C 96% 4.5 mph S7.2 kmh S 15.2 mph24.5 kmh 30.05 in1017.6 mb 0.09 in2.3 mm 0.08 in2.0 mm 0.38 in9.7 mm
11:45 PM 38.7°F3.7°C 37.6°F3.1°C 96% 6.9 mph SSE11.1 kmh SSE 14.5 mph23.3 kmh 30.05 in1017.6 mb 0.08 in2.0 mm 0.00 in0.0 mm 0.39 in9.9 mm